createdAt,value
2023-05-24T00:01:42.326Z,100.00
2023-05-24T00:04:11.151Z,100.00
2023-05-24T00:06:39.400Z,100.00
2023-05-24T00:09:07.366Z,100.00
2023-05-24T00:11:35.339Z,100.00
2023-05-24T00:14:04.681Z,100.00
2023-05-24T00:16:32.688Z,100.00
2023-05-24T00:19:00.708Z,100.00
2023-05-24T00:21:28.698Z,100.00
2023-05-24T00:23:56.659Z,100.00
2023-05-24T00:26:24.598Z,100.00
2023-05-24T00:28:52.605Z,100.00
2023-05-24T00:31:22.002Z,100.00
2023-05-24T00:33:49.993Z,100.00
2023-05-24T00:36:17.979Z,100.00
2023-05-24T00:38:46.026Z,100.00
2023-05-24T00:41:14.072Z,100.00
2023-05-24T00:43:43.369Z,100.00
2023-05-24T00:46:17.976Z,100.00
2023-05-24T00:48:47.593Z,100.00
2023-05-24T00:51:15.832Z,100.00
2023-05-24T00:53:45.321Z,100.00
2023-05-24T00:56:14.137Z,100.00
2023-05-24T00:58:42.173Z,100.00
2023-05-24T01:01:10.214Z,100.00
2023-05-24T01:03:38.422Z,100.00
2023-05-24T01:06:08.812Z,100.00
2023-05-24T01:08:47.761Z,100.00
2023-05-24T01:11:19.555Z,100.00
2023-05-24T01:13:50.066Z,100.00
2023-05-24T01:16:20.300Z,100.00
2023-05-24T01:18:49.979Z,100.00
2023-05-24T01:21:26.497Z,100.00
2023-05-24T01:23:58.303Z,100.00
2023-05-24T01:26:33.268Z,100.00
2023-05-24T01:29:02.936Z,100.00
2023-05-24T01:31:30.947Z,100.00
2023-05-24T01:33:58.936Z,100.00
2023-05-24T01:36:26.915Z,100.00
2023-05-24T01:38:54.938Z,100.00
2023-05-24T01:41:28.269Z,100.00
2023-05-24T01:44:00.523Z,100.00
2023-05-24T01:46:36.136Z,100.00
2023-05-24T01:49:10.724Z,100.00
2023-05-24T01:51:42.424Z,100.00
2023-05-24T01:54:10.541Z,100.00
2023-05-24T01:56:38.527Z,100.00
2023-05-24T01:59:06.488Z,100.00
2023-05-24T02:01:35.997Z,100.00
2023-05-24T02:04:04.085Z,100.00
2023-05-24T02:06:32.063Z,100.00
2023-05-24T02:09:00.015Z,100.00
2023-05-24T02:11:28.062Z,100.00
2023-05-24T02:13:56.055Z,100.00
2023-05-24T02:16:27.054Z,100.00
2023-05-24T02:18:56.927Z,100.00
2023-05-24T02:21:25.970Z,100.00
2023-05-24T02:23:53.993Z,100.00
2023-05-24T02:26:22.236Z,100.00
2023-05-24T02:28:50.266Z,100.00
2023-05-24T02:31:18.260Z,100.00
2023-05-24T02:33:46.276Z,100.00
2023-05-24T02:36:15.815Z,100.00
2023-05-24T02:38:43.786Z,100.00
2023-05-24T02:41:17.839Z,100.00
2023-05-24T02:43:45.867Z,100.00
2023-05-24T02:46:13.888Z,100.00
2023-05-24T02:48:41.905Z,100.00
2023-05-24T02:51:09.946Z,100.00
2023-05-24T02:53:39.355Z,100.00
2023-05-24T02:56:08.749Z,100.00
2023-05-24T02:58:40.552Z,100.00
2023-05-24T03:01:08.703Z,100.00
2023-05-24T03:03:36.814Z,100.00
2023-05-24T03:06:05.119Z,100.00
2023-05-24T03:08:33.151Z,100.00
2023-05-24T03:11:02.516Z,100.00
2023-05-24T03:13:30.496Z,100.00
2023-05-24T03:15:58.519Z,100.00
2023-05-24T03:18:26.480Z,100.00
2023-05-24T03:20:54.495Z,100.00
2023-05-24T03:23:22.444Z,100.00
2023-05-24T03:25:50.419Z,100.00
2023-05-24T03:28:22.366Z,100.00
2023-05-24T03:30:50.508Z,100.00
2023-05-24T03:33:18.493Z,100.00
2023-05-24T03:35:46.519Z,100.00
2023-05-24T03:38:14.565Z,100.00
2023-05-24T03:40:42.600Z,100.00
2023-05-24T03:43:11.001Z,100.00
2023-05-24T03:45:40.434Z,100.00
2023-05-24T03:48:08.477Z,100.00
2023-05-24T03:50:36.509Z,100.00
2023-05-24T03:53:04.536Z,100.00
2023-05-24T03:55:32.487Z,100.00
2023-05-24T03:58:00.478Z,100.00
2023-05-24T04:00:28.580Z,100.00
2023-05-24T04:02:58.050Z,100.00
2023-05-24T04:05:27.239Z,100.00
2023-05-24T04:07:55.370Z,100.00
2023-05-24T04:10:23.468Z,100.00
2023-05-24T04:12:51.464Z,100.00
2023-05-24T04:15:19.494Z,100.00
2023-05-24T04:17:47.694Z,100.00
2023-05-24T04:20:17.274Z,100.00
2023-05-24T04:22:45.401Z,100.00
2023-05-24T04:25:13.370Z,97.30
2023-05-24T04:27:41.378Z,80.90
2023-05-24T04:30:10.528Z,73.11
2023-05-24T04:32:40.673Z,63.68
2023-05-24T04:35:09.670Z,56.75
2023-05-24T04:37:39.987Z,54.21
2023-05-24T04:40:09.382Z,50.79
2023-05-24T04:42:37.379Z,49.15
2023-05-24T04:45:05.887Z,50.03
2023-05-24T04:47:33.954Z,53.10
2023-05-24T04:50:02.014Z,58.42
2023-05-24T04:52:30.569Z,61.38
2023-05-24T04:55:00.161Z,71.91
2023-05-24T04:57:28.093Z,78.15
2023-05-24T04:59:56.224Z,79.88
2023-05-24T05:02:26.527Z,78.94
2023-05-24T05:04:54.606Z,73.50
2023-05-24T05:07:22.659Z,67.48
2023-05-24T05:09:50.666Z,67.65
2023-05-24T05:12:20.089Z,74.48
2023-05-24T05:14:48.019Z,82.12
2023-05-24T05:17:16.005Z,89.82
2023-05-24T05:19:44.011Z,95.10
2023-05-24T05:22:12.068Z,90.32
2023-05-24T05:24:40.153Z,90.71
2023-05-24T05:27:08.142Z,93.06
2023-05-24T05:29:37.461Z,92.91
2023-05-24T05:32:05.792Z,80.44
2023-05-24T05:34:33.813Z,70.15
2023-05-24T05:37:01.835Z,59.54
2023-05-24T05:39:31.806Z,52.22
2023-05-24T05:41:59.785Z,46.87
2023-05-24T05:44:27.785Z,44.92
2023-05-24T05:46:57.164Z,43.19
2023-05-24T05:49:25.185Z,40.25
2023-05-24T05:51:53.436Z,38.67
2023-05-24T05:54:21.460Z,36.25
2023-05-24T05:56:49.512Z,35.28
2023-05-24T05:59:17.569Z,36.44
2023-05-24T06:01:47.162Z,35.69
2023-05-24T06:04:16.608Z,35.56
2023-05-24T06:06:45.468Z,35.78
2023-05-24T06:09:13.450Z,35.62
2023-05-24T06:11:44.805Z,35.51
2023-05-24T06:14:13.454Z,33.07
2023-05-24T06:16:43.636Z,32.93
2023-05-24T06:19:11.775Z,32.95
2023-05-24T06:21:47.220Z,34.00
2023-05-24T06:24:15.421Z,33.08
2023-05-24T06:26:43.978Z,33.74
2023-05-24T06:29:12.140Z,34.44
2023-05-24T06:31:40.101Z,34.90
2023-05-24T06:34:08.573Z,36.70
2023-05-24T06:36:41.446Z,36.76
2023-05-24T06:39:11.371Z,36.41
2023-05-24T06:41:39.503Z,36.70
2023-05-24T06:44:07.459Z,36.37
2023-05-24T06:46:35.796Z,35.83
2023-05-24T06:49:04.366Z,37.36
2023-05-24T06:51:33.887Z,36.67
2023-05-24T06:54:02.227Z,35.87
2023-05-24T06:56:31.613Z,34.94
2023-05-24T06:58:59.849Z,35.97
2023-05-24T07:01:28.262Z,37.80
2023-05-24T07:03:56.405Z,40.45
2023-05-24T07:06:25.209Z,41.43
2023-05-24T07:08:53.237Z,42.92
2023-05-24T07:11:21.323Z,43.39
2023-05-24T07:13:50.680Z,44.94
2023-05-24T07:16:18.727Z,48.87
2023-05-24T07:18:46.760Z,49.92
2023-05-24T07:21:14.812Z,49.54
2023-05-24T07:23:42.816Z,52.50
2023-05-24T07:26:10.860Z,53.66
2023-05-24T07:28:40.487Z,51.43
2023-05-24T07:31:10.233Z,51.77
2023-05-24T07:33:38.589Z,52.15
2023-05-24T07:36:07.247Z,51.10
2023-05-24T07:38:35.423Z,52.33
2023-05-24T07:41:04.859Z,51.57
2023-05-24T07:43:32.993Z,52.89
2023-05-24T07:46:00.986Z,51.98
2023-05-24T07:48:30.361Z,52.21
2023-05-24T07:50:58.342Z,51.90
2023-05-24T07:53:26.360Z,49.63
2023-05-24T07:55:54.342Z,49.19
2023-05-24T07:58:22.345Z,48.20
2023-05-24T08:00:50.414Z,44.83
2023-05-24T08:03:18.442Z,46.65
2023-05-24T08:05:47.983Z,45.43
2023-05-24T08:08:16.080Z,48.80
2023-05-24T08:10:44.052Z,47.23
2023-05-24T08:13:12.192Z,46.68
2023-05-24T08:15:40.332Z,47.75
2023-05-24T08:18:09.629Z,47.06
2023-05-24T08:20:37.802Z,42.24
2023-05-24T08:23:07.170Z,42.75
2023-05-24T08:25:35.184Z,42.79
2023-05-24T08:28:03.182Z,44.96
2023-05-24T08:30:32.409Z,43.91
2023-05-24T08:33:00.481Z,47.03
2023-05-24T08:35:28.472Z,46.44
2023-05-24T08:37:57.201Z,45.06
2023-05-24T08:40:26.532Z,44.87
2023-05-24T08:42:54.513Z,47.13
2023-05-24T08:45:23.006Z,47.47
2023-05-24T08:47:51.843Z,47.02
2023-05-24T08:50:19.988Z,46.00
2023-05-24T08:52:47.991Z,46.80
2023-05-24T08:55:16.160Z,48.93
2023-05-24T08:57:45.867Z,48.62
2023-05-24T09:00:14.827Z,47.99
2023-05-24T09:02:43.445Z,47.60
2023-05-24T09:05:11.913Z,48.59
2023-05-24T09:07:39.950Z,48.59
2023-05-24T09:10:09.244Z,47.39
2023-05-24T09:12:39.290Z,48.18
2023-05-24T09:15:10.031Z,45.29
2023-05-24T09:17:38.309Z,47.21
2023-05-24T09:20:09.279Z,47.64
2023-05-24T09:22:40.681Z,41.80
2023-05-24T09:25:09.909Z,44.42
2023-05-24T09:27:38.549Z,46.79
2023-05-24T09:30:11.114Z,43.02
2023-05-24T09:32:39.306Z,42.75
2023-05-24T09:35:10.037Z,46.32
2023-05-24T09:37:38.851Z,40.83
2023-05-24T09:40:09.109Z,39.92
2023-05-24T09:42:38.222Z,43.20
2023-05-24T09:45:08.961Z,39.91
2023-05-24T09:47:39.043Z,39.24
2023-05-24T09:50:08.261Z,40.62
2023-05-24T09:52:37.850Z,38.99
2023-05-24T09:55:13.080Z,37.05
2023-05-24T09:57:41.296Z,37.61
2023-05-24T10:00:17.712Z,38.62
2023-05-24T10:02:53.536Z,37.56
2023-05-24T10:05:22.378Z,39.08
2023-05-24T10:07:50.481Z,39.75
2023-05-24T10:10:18.580Z,38.25
2023-05-24T10:12:47.174Z,39.73
2023-05-24T10:15:15.341Z,36.42
2023-05-24T10:17:43.332Z,38.04
2023-05-24T10:20:13.621Z,38.44
2023-05-24T10:22:44.191Z,37.02
2023-05-24T10:25:15.067Z,36.13
2023-05-24T10:27:43.053Z,35.69
2023-05-24T10:30:14.261Z,35.78
2023-05-24T10:32:42.353Z,33.25
2023-05-24T10:35:12.229Z,33.40
2023-05-24T10:37:42.694Z,32.87
2023-05-24T10:40:18.086Z,31.67
2023-05-24T10:42:46.247Z,34.26
2023-05-24T10:45:36.002Z,32.22
2023-05-24T10:48:11.411Z,30.61
2023-05-24T10:50:39.489Z,32.52
2023-05-24T10:53:14.044Z,29.01
2023-05-24T10:55:58.071Z,28.38
2023-05-24T10:58:30.767Z,29.03
2023-05-24T11:00:58.787Z,27.90
2023-05-24T11:03:26.788Z,27.30
2023-05-24T11:05:55.569Z,26.90
2023-05-24T11:08:31.825Z,28.58
2023-05-24T11:11:23.238Z,27.77
2023-05-24T11:13:57.129Z,27.84
2023-05-24T11:16:34.458Z,29.14
2023-05-24T11:19:12.729Z,28.24
2023-05-24T11:21:41.057Z,26.15
2023-05-24T11:24:10.666Z,26.28
2023-05-24T11:26:38.628Z,26.19
2023-05-24T11:29:07.441Z,26.23
2023-05-24T11:31:42.413Z,25.38
2023-05-24T11:34:12.066Z,26.65
2023-05-24T11:36:40.054Z,25.37
2023-05-24T11:39:10.386Z,25.51
2023-05-24T11:41:39.318Z,27.08
2023-05-24T11:44:08.385Z,26.71
2023-05-24T11:46:36.878Z,27.15
2023-05-24T11:49:04.864Z,28.02
2023-05-24T11:51:33.789Z,26.45
2023-05-24T11:54:01.836Z,27.30
2023-05-24T11:56:33.915Z,26.96
2023-05-24T11:59:09.887Z,24.75
2023-05-24T12:01:38.283Z,24.01
2023-05-24T12:04:07.372Z,25.04
2023-05-24T12:06:36.673Z,24.07
2023-05-24T12:09:08.206Z,24.01
2023-05-24T12:11:41.820Z,24.25
2023-05-24T12:14:13.689Z,24.55
2023-05-24T12:16:43.091Z,25.47
2023-05-24T12:19:24.634Z,24.51
2023-05-24T12:22:00.296Z,23.89
2023-05-24T12:24:28.740Z,24.98
2023-05-24T12:27:02.204Z,24.61
2023-05-24T12:29:34.038Z,23.70
2023-05-24T12:32:02.089Z,23.23
2023-05-24T12:34:30.284Z,22.90
2023-05-24T12:36:58.397Z,22.70
2023-05-24T12:39:31.380Z,23.13
2023-05-24T12:42:02.156Z,22.49
2023-05-24T12:44:31.416Z,22.72
2023-05-24T12:46:59.582Z,23.18
2023-05-24T12:49:27.626Z,24.54
2023-05-24T12:51:56.527Z,26.07
2023-05-24T12:54:25.948Z,27.41
2023-05-24T12:56:56.341Z,28.03
2023-05-24T12:59:27.380Z,26.74
2023-05-24T13:01:58.856Z,26.56
2023-05-24T13:04:27.782Z,28.52
2023-05-24T13:06:56.083Z,31.98
2023-05-24T13:09:25.629Z,35.02
2023-05-24T13:11:54.462Z,37.62
2023-05-24T13:14:22.748Z,40.59
2023-05-24T13:16:52.698Z,42.93
2023-05-24T13:19:20.733Z,45.62
2023-05-24T13:21:48.921Z,47.60
2023-05-24T13:24:17.310Z,49.19
2023-05-24T13:26:45.512Z,51.14
2023-05-24T13:31:45.340Z,52.55
2023-05-24T13:34:14.939Z,49.16
2023-05-24T13:36:43.889Z,49.32
2023-05-24T13:39:16.237Z,50.47
2023-05-24T13:41:44.921Z,51.30
2023-05-24T13:44:13.341Z,50.04
2023-05-24T13:46:41.497Z,51.31
2023-05-24T13:49:09.818Z,52.93
2023-05-24T13:51:39.184Z,58.20
2023-05-24T13:54:08.095Z,59.68
2023-05-24T13:56:36.654Z,65.75
2023-05-24T13:59:05.473Z,72.03
2023-05-24T14:01:33.764Z,73.85
2023-05-24T14:04:02.149Z,71.62
2023-05-24T14:06:30.175Z,71.82
2023-05-24T14:08:59.588Z,73.90
2023-05-24T14:11:27.897Z,77.75
2023-05-24T14:14:51.433Z,78.88
2023-05-24T14:16:43.928Z,79.96
2023-05-24T14:19:12.009Z,80.15
2023-05-24T14:21:41.311Z,82.45
2023-05-24T14:24:10.849Z,80.17
2023-05-24T14:26:38.898Z,77.80
2023-05-24T14:29:07.286Z,79.24
2023-05-24T14:31:41.651Z,78.87
2023-05-24T14:34:11.064Z,80.49
2023-05-24T14:36:40.401Z,82.08
2023-05-24T14:39:08.412Z,77.58
2023-05-24T14:41:37.869Z,80.20
2023-05-24T14:44:05.910Z,77.89
2023-05-24T14:46:34.032Z,78.76
2023-05-24T14:49:02.568Z,75.58
2023-05-24T14:51:30.638Z,73.96
2023-05-24T14:53:58.606Z,74.33
2023-05-24T14:56:26.662Z,78.91
2023-05-24T14:58:55.987Z,77.20
2023-05-24T15:01:24.123Z,77.20
2023-05-24T15:03:52.173Z,75.55
2023-05-24T15:06:20.207Z,75.95
2023-05-24T15:08:48.244Z,74.79
2023-05-24T15:11:17.599Z,75.17
2023-05-24T15:13:46.157Z,72.56
2023-05-24T15:16:15.549Z,74.78
2023-05-24T15:18:43.601Z,74.37
2023-05-24T15:21:11.857Z,70.95
2023-05-24T15:23:39.905Z,72.58
2023-05-24T15:26:08.272Z,69.47
2023-05-24T15:28:36.245Z,70.86
2023-05-24T15:31:04.531Z,68.62
2023-05-24T15:33:33.994Z,68.84
2023-05-24T15:36:02.020Z,68.41
2023-05-24T15:38:30.080Z,66.48
2023-05-24T15:40:58.060Z,68.23
2023-05-24T15:43:26.041Z,69.89
2023-05-24T15:45:54.100Z,70.38
2023-05-24T15:48:22.789Z,73.31
2023-05-24T15:51:39.752Z,73.49
2023-05-24T15:53:40.133Z,77.24
2023-05-24T15:56:08.552Z,76.25
2023-05-24T15:58:36.484Z,83.85
2023-05-24T16:01:04.496Z,89.35
2023-05-24T16:03:32.718Z,91.24
2023-05-24T16:06:02.216Z,93.54
2023-05-24T16:08:30.210Z,96.07
2023-05-24T16:10:58.286Z,97.25
2023-05-24T16:13:26.364Z,99.43
2023-05-24T16:15:54.363Z,100.00
2023-05-24T16:18:23.422Z,100.00
2023-05-24T16:20:51.740Z,100.00
2023-05-24T16:23:23.069Z,100.00
2023-05-24T16:25:51.504Z,100.00
2023-05-24T16:28:23.806Z,100.00
2023-05-24T16:30:55.652Z,100.00
2023-05-24T16:33:23.756Z,100.00
2023-05-24T16:35:55.714Z,100.00
2023-05-24T16:38:25.494Z,100.00
2023-05-24T16:40:53.689Z,100.00
2023-05-24T16:43:21.812Z,100.00
2023-05-24T16:45:49.952Z,100.00
2023-05-24T16:48:19.567Z,100.00
2023-05-24T16:50:47.634Z,100.00
2023-05-24T16:53:15.573Z,100.00
2023-05-24T16:55:44.946Z,100.00
2023-05-24T16:58:12.975Z,100.00
2023-05-24T17:00:41.138Z,100.00
2023-05-24T17:03:09.306Z,100.00
2023-05-24T17:05:37.370Z,100.00
2023-05-24T17:08:05.355Z,100.00
2023-05-24T17:10:33.307Z,100.00
2023-05-24T17:13:02.699Z,100.00
2023-05-24T17:15:30.675Z,100.00
2023-05-24T17:17:58.708Z,100.00
2023-05-24T17:20:26.777Z,100.00
2023-05-24T17:22:55.760Z,100.00
2023-05-24T17:25:23.747Z,100.00
2023-05-24T17:27:51.717Z,100.00
2023-05-24T17:30:21.210Z,100.00
2023-05-24T17:32:49.271Z,100.00
2023-05-24T17:35:17.531Z,100.00
2023-05-24T17:37:45.536Z,100.00
2023-05-24T17:40:13.693Z,100.00
2023-05-24T17:42:43.188Z,100.00
2023-05-24T17:45:12.017Z,100.00
2023-05-24T17:47:41.506Z,100.00
2023-05-24T17:50:10.946Z,100.00
2023-05-24T17:52:38.899Z,100.00
2023-05-24T17:55:08.113Z,100.00
2023-05-24T17:57:36.183Z,100.00
2023-05-24T18:00:04.358Z,100.00
2023-05-24T18:02:32.432Z,100.00
2023-05-24T18:05:01.839Z,100.00
2023-05-24T18:07:30.262Z,100.00
2023-05-24T18:10:00.234Z,100.00
2023-05-24T18:12:28.664Z,100.00
2023-05-24T18:14:56.670Z,100.00
2023-05-24T18:17:27.282Z,100.00
2023-05-24T18:19:55.498Z,100.00
2023-05-24T18:22:24.902Z,100.00
2023-05-24T18:24:52.873Z,100.00
2023-05-24T18:27:20.828Z,100.00
2023-05-24T18:29:48.848Z,100.00
2023-05-24T18:32:16.930Z,100.00
2023-05-24T18:34:44.972Z,100.00
2023-05-24T18:37:12.994Z,100.00
2023-05-24T18:39:42.380Z,100.00
2023-05-24T18:42:12.687Z,100.00
2023-05-24T18:44:40.747Z,100.00
2023-05-24T18:47:10.923Z,100.00
2023-05-24T18:49:38.878Z,100.00
2023-05-24T18:52:06.931Z,100.00
2023-05-24T18:54:34.918Z,100.00
2023-05-24T18:57:04.754Z,100.00
2023-05-24T18:59:34.536Z,100.00
2023-05-24T19:02:02.770Z,100.00
2023-05-24T19:04:30.986Z,100.00
2023-05-24T19:06:59.004Z,100.00
2023-05-24T19:09:27.013Z,100.00
2023-05-24T19:11:56.366Z,100.00
2023-05-24T19:14:25.813Z,100.00
2023-05-24T19:16:53.955Z,100.00
2023-05-24T19:19:22.064Z,100.00
2023-05-24T19:21:50.085Z,100.00
2023-05-24T19:24:18.078Z,100.00
2023-05-24T19:26:46.064Z,100.00
2023-05-24T19:29:14.118Z,100.00
2023-05-24T19:31:45.810Z,100.00
2023-05-24T19:34:13.875Z,100.00
2023-05-24T19:36:41.893Z,100.00
2023-05-24T19:39:09.887Z,100.00
2023-05-24T19:41:37.870Z,100.00
2023-05-24T19:44:05.840Z,100.00
2023-05-24T19:46:33.873Z,100.00
2023-05-24T19:49:03.263Z,100.00
2023-05-24T19:51:31.294Z,100.00
2023-05-24T19:53:59.291Z,100.00
2023-05-24T19:56:27.565Z,100.00
2023-05-24T19:58:55.934Z,100.00
2023-05-24T20:01:24.188Z,100.00
2023-05-24T20:03:52.284Z,100.00
2023-05-24T20:06:21.742Z,100.00
2023-05-24T20:08:49.739Z,100.00
2023-05-24T20:11:17.761Z,100.00
2023-05-24T20:13:45.779Z,100.00
2023-05-24T20:16:13.848Z,100.00
2023-05-24T20:18:41.976Z,100.00
2023-05-24T20:21:10.395Z,100.00
2023-05-24T20:23:39.788Z,100.00
2023-05-24T20:26:07.775Z,100.00
2023-05-24T20:28:35.742Z,100.00
2023-05-24T20:31:04.069Z,100.00
2023-05-24T20:33:33.527Z,100.00
2023-05-24T20:36:01.490Z,100.00
2023-05-24T20:38:29.485Z,100.00
2023-05-24T20:40:58.856Z,100.00
2023-05-24T20:43:26.910Z,100.00
2023-05-24T20:45:55.401Z,100.00
2023-05-24T20:48:25.526Z,100.00
2023-05-24T20:50:53.554Z,100.00
2023-05-24T20:53:21.539Z,100.00
2023-05-24T20:55:49.531Z,100.00
2023-05-24T20:58:19.204Z,100.00
2023-05-24T21:00:47.257Z,100.00
2023-05-24T21:03:15.595Z,100.00
2023-05-24T21:05:44.023Z,100.00
2023-05-24T21:08:12.245Z,100.00
2023-05-24T21:10:40.203Z,100.00
2023-05-24T21:13:08.301Z,100.00
2023-05-24T21:15:37.700Z,100.00
2023-05-24T21:18:06.051Z,100.00
2023-05-24T21:20:34.102Z,100.00
2023-05-24T21:23:02.211Z,100.00
2023-05-24T21:25:30.204Z,100.00
2023-05-24T21:27:58.162Z,100.00
2023-05-24T21:30:26.178Z,100.00
2023-05-24T21:32:55.568Z,100.00
2023-05-24T21:35:23.578Z,100.00
2023-05-24T21:37:52.621Z,100.00
2023-05-24T21:40:20.671Z,100.00
2023-05-24T21:42:48.644Z,100.00
2023-05-24T21:45:16.920Z,100.00
2023-05-24T21:47:44.948Z,100.00
2023-05-24T21:50:14.340Z,100.00
2023-05-24T21:52:42.363Z,100.00
2023-05-24T21:55:10.599Z,100.00
2023-05-24T21:57:38.588Z,100.00
2023-05-24T22:00:07.268Z,100.00
2023-05-24T22:02:35.729Z,100.00
2023-05-24T22:05:05.311Z,100.00
2023-05-24T22:07:34.765Z,100.00
2023-05-24T22:10:02.734Z,100.00
2023-05-24T22:12:30.713Z,100.00
2023-05-24T22:14:58.718Z,100.00
2023-05-24T22:17:29.149Z,100.00
2023-05-24T22:19:57.372Z,100.00
2023-05-24T22:22:25.421Z,100.00
2023-05-24T22:24:54.832Z,100.00
2023-05-24T22:27:22.890Z,100.00
2023-05-24T22:29:50.889Z,100.00
2023-05-24T22:32:18.977Z,100.00
2023-05-24T22:34:47.161Z,100.00
2023-05-24T22:37:16.700Z,100.00
2023-05-24T22:39:45.132Z,100.00
2023-05-24T22:42:14.503Z,100.00
2023-05-24T22:44:42.488Z,100.00
2023-05-24T22:47:13.927Z,100.00
2023-05-24T22:49:43.104Z,100.00
2023-05-24T22:52:11.861Z,100.00
2023-05-24T22:54:39.879Z,100.00
2023-05-24T22:57:07.885Z,100.00
2023-05-24T22:59:37.219Z,100.00
2023-05-24T23:02:05.517Z,100.00
2023-05-24T23:04:33.623Z,100.00
2023-05-24T23:07:01.685Z,100.00
2023-05-24T23:09:34.610Z,100.00
2023-05-24T23:12:07.284Z,100.00
2023-05-24T23:14:38.352Z,100.00
2023-05-24T23:17:10.387Z,100.00
2023-05-24T23:19:42.317Z,100.00
2023-05-24T23:22:11.992Z,100.00
2023-05-24T23:24:42.291Z,100.00
2023-05-24T23:27:10.545Z,100.00
2023-05-24T23:29:39.101Z,100.00
2023-05-24T23:32:09.252Z,100.00
2023-05-24T23:34:37.357Z,100.00
2023-05-24T23:37:05.900Z,100.00
2023-05-24T23:39:34.058Z,100.00
2023-05-24T23:42:02.646Z,100.00
2023-05-24T23:44:30.754Z,100.00
2023-05-24T23:46:58.756Z,100.00
2023-05-24T23:49:28.196Z,100.00
2023-05-24T23:51:56.194Z,100.00
2023-05-24T23:54:24.187Z,100.00
2023-05-24T23:56:52.180Z,100.00
2023-05-24T23:59:20.104Z,100.00
